createdAt,value
2022-09-11T00:01:15.535Z,1.00
2022-09-11T00:03:44.168Z,0.95
2022-09-11T00:06:13.935Z,0.90
2022-09-11T00:08:42.228Z,0.82
2022-09-11T00:11:17.401Z,0.90
2022-09-11T00:13:46.808Z,1.00
2022-09-11T00:16:35.350Z,0.90
2022-09-11T00:19:05.850Z,1.10
2022-09-11T00:21:33.111Z,1.00
2022-09-11T00:24:00.026Z,0.80
2022-09-11T00:26:26.676Z,1.00
2022-09-11T00:28:54.042Z,1.10
2022-09-11T00:31:23.701Z,1.00
2022-09-11T00:33:51.862Z,1.00
2022-09-11T00:36:22.732Z,0.90
2022-09-11T00:38:50.219Z,0.98
2022-09-11T00:41:23.068Z,1.10
2022-09-11T00:43:59.701Z,1.00
2022-09-11T00:46:31.662Z,0.90
2022-09-11T00:49:01.480Z,0.90
2022-09-11T00:51:33.875Z,1.00
2022-09-11T00:54:02.677Z,1.00
2022-09-11T00:56:31.499Z,1.40
2022-09-11T00:58:59.477Z,0.70
2022-09-11T01:01:26.134Z,1.10
2022-09-11T01:03:52.733Z,0.90
2022-09-11T01:06:21.210Z,1.20
2022-09-11T01:08:47.774Z,1.05
2022-09-11T01:11:48.023Z,1.10
2022-09-11T01:14:25.584Z,1.02
2022-09-11T01:17:00.006Z,1.05
2022-09-11T01:20:07.750Z,1.05
2022-09-11T01:23:33.795Z,0.90
2022-09-11T01:26:32.526Z,0.90
2022-09-11T01:29:14.007Z,0.80
2022-09-11T01:31:48.006Z,0.98
2022-09-11T01:34:48.723Z,1.13
2022-09-11T01:37:24.618Z,1.00
2022-09-11T01:40:01.310Z,1.00
2022-09-11T01:42:31.644Z,1.30
2022-09-11T01:44:58.290Z,1.05
2022-09-11T01:47:26.234Z,1.27
2022-09-11T01:50:04.450Z,1.00
2022-09-11T01:52:35.792Z,1.13
2022-09-11T01:55:09.547Z,1.30
2022-09-11T02:00:11.107Z,1.00
2022-09-11T02:02:46.466Z,1.23
2022-09-11T02:05:21.109Z,1.00
2022-09-11T02:08:12.936Z,0.90
2022-09-11T02:11:03.815Z,1.20
2022-09-11T02:13:39.650Z,1.50
2022-09-11T02:16:19.638Z,1.10
2022-09-11T02:19:06.137Z,1.25
2022-09-11T02:21:33.939Z,1.15
2022-09-11T02:24:02.194Z,1.00
2022-09-11T02:26:32.271Z,1.20
2022-09-11T02:28:59.275Z,1.10
2022-09-11T02:31:26.182Z,1.25
2022-09-11T02:33:52.885Z,1.17
2022-09-11T02:36:31.756Z,1.20
2022-09-11T02:38:58.431Z,1.15
2022-09-11T02:41:37.645Z,0.98
2022-09-11T02:44:12.668Z,1.15
2022-09-11T02:46:39.285Z,0.98
2022-09-11T02:49:14.750Z,0.90
2022-09-11T02:52:03.335Z,1.00
2022-09-11T02:54:35.817Z,1.00
2022-09-11T02:57:10.237Z,1.20
2022-09-11T02:59:49.419Z,1.20
2022-09-11T03:02:18.392Z,1.10
2022-09-11T03:04:45.712Z,1.00
2022-09-11T03:07:12.413Z,1.00
2022-09-11T03:09:39.136Z,0.90
2022-09-11T03:12:06.160Z,1.23
2022-09-11T03:14:32.837Z,1.08
2022-09-11T03:16:59.548Z,0.90
2022-09-11T03:19:26.178Z,2.08
2022-09-11T03:21:53.419Z,1.05
2022-09-11T03:24:20.211Z,1.30
2022-09-11T03:26:46.890Z,1.17
2022-09-11T03:29:13.679Z,1.13
2022-09-11T03:31:43.333Z,1.02
2022-09-11T03:34:10.493Z,1.02
2022-09-11T03:36:37.278Z,1.00
2022-09-11T03:39:04.243Z,1.23
2022-09-11T03:41:31.236Z,1.10
2022-09-11T03:43:57.848Z,1.10
2022-09-11T03:46:24.564Z,1.45
2022-09-11T03:48:54.500Z,0.90
2022-09-11T03:51:21.445Z,0.93
2022-09-11T03:53:48.333Z,0.95
2022-09-11T03:56:15.119Z,1.13
2022-09-11T03:58:43.334Z,1.10
2022-09-11T04:01:15.870Z,1.33
2022-09-11T04:03:42.871Z,1.10
2022-09-11T04:06:10.541Z,1.17
2022-09-11T04:08:39.343Z,3.05
2022-09-11T04:11:06.930Z,1.73
2022-09-11T04:13:36.507Z,1.08
2022-09-11T04:16:06.406Z,1.05
2022-09-11T04:18:36.030Z,1.20
2022-09-11T04:21:07.049Z,1.20
2022-09-11T04:23:34.322Z,1.00
2022-09-11T04:26:01.832Z,1.08
2022-09-11T04:28:29.676Z,0.95
2022-09-11T04:30:59.246Z,0.93
2022-09-11T04:33:25.898Z,1.00
2022-09-11T04:35:52.501Z,1.13
2022-09-11T04:38:19.182Z,1.15
2022-09-11T04:40:45.873Z,1.20
2022-09-11T04:43:12.616Z,1.20
2022-09-11T04:45:40.726Z,1.25
2022-09-11T04:48:07.401Z,1.20
2022-09-11T04:50:34.094Z,1.15
2022-09-11T04:53:00.774Z,1.05
2022-09-11T04:55:27.488Z,1.25
2022-09-11T04:57:54.253Z,1.17
2022-09-11T05:00:20.956Z,1.27
2022-09-11T05:02:47.852Z,1.20
2022-09-11T05:05:14.574Z,1.10
2022-09-11T05:07:41.259Z,1.30
2022-09-11T05:10:08.394Z,1.20
2022-09-11T05:12:35.076Z,1.20
2022-09-11T05:15:01.679Z,1.00
2022-09-11T05:17:28.333Z,1.27
2022-09-11T05:19:56.237Z,1.35
2022-09-11T05:22:23.288Z,1.40
2022-09-11T05:24:49.966Z,1.40
2022-09-11T05:27:16.641Z,1.50
2022-09-11T05:29:44.190Z,1.30
2022-09-11T05:32:10.927Z,1.10
2022-09-11T05:34:37.596Z,1.20
2022-09-11T05:37:04.509Z,1.30
2022-09-11T05:39:31.239Z,1.30
2022-09-11T05:41:57.908Z,1.25
2022-09-11T05:44:24.601Z,1.20
2022-09-11T05:46:51.759Z,1.20
2022-09-11T05:49:19.476Z,1.48
2022-09-11T05:51:46.131Z,1.15
2022-09-11T05:54:12.807Z,1.40
2022-09-11T05:56:39.740Z,1.40
2022-09-11T05:59:14.094Z,1.45
2022-09-11T06:01:40.916Z,1.30
2022-09-11T06:04:13.145Z,1.50
2022-09-11T06:06:40.110Z,1.17
2022-09-11T06:09:07.522Z,1.40
2022-09-11T06:11:34.464Z,1.63
2022-09-11T06:14:01.363Z,1.20
2022-09-11T06:16:31.145Z,1.50
2022-09-11T06:18:58.090Z,1.58
2022-09-11T06:21:27.514Z,1.50
2022-09-11T06:23:54.168Z,1.33
2022-09-11T06:26:23.375Z,1.45
2022-09-11T06:28:51.156Z,1.35
2022-09-11T06:31:23.283Z,1.45
2022-09-11T06:33:51.455Z,1.30
2022-09-11T06:36:20.360Z,1.50
2022-09-11T06:38:51.823Z,1.42
2022-09-11T06:41:20.951Z,1.25
2022-09-11T06:43:47.665Z,1.40
2022-09-11T06:46:17.585Z,1.48
2022-09-11T06:48:46.278Z,1.75
2022-09-11T06:51:17.469Z,1.35
2022-09-11T06:53:45.143Z,1.20
2022-09-11T06:56:14.223Z,1.60
2022-09-11T06:58:41.300Z,1.42
2022-09-11T07:01:11.532Z,1.73
2022-09-11T07:03:44.923Z,1.50
2022-09-11T07:06:12.853Z,1.50
2022-09-11T07:08:42.319Z,1.20
2022-09-11T07:11:11.859Z,1.40
2022-09-11T07:13:38.908Z,1.38
2022-09-11T07:16:08.413Z,1.48
2022-09-11T07:18:36.452Z,1.42
2022-09-11T07:21:11.348Z,2.30
2022-09-11T07:23:39.348Z,1.20
2022-09-11T07:26:09.179Z,1.20
2022-09-11T07:28:37.792Z,1.40
2022-09-11T07:31:14.432Z,1.50
2022-09-11T07:33:46.149Z,1.30
2022-09-11T07:36:14.747Z,1.25
2022-09-11T07:38:42.828Z,1.40
2022-09-11T07:41:10.727Z,1.30
2022-09-11T07:43:38.886Z,1.27
2022-09-11T07:46:06.384Z,1.52
2022-09-11T07:48:33.030Z,1.25
2022-09-11T07:51:04.594Z,1.38
2022-09-11T07:53:39.295Z,1.48
2022-09-11T07:56:11.190Z,1.55
2022-09-11T07:58:40.534Z,1.20
2022-09-11T08:01:12.717Z,1.70
2022-09-11T08:03:39.908Z,1.70
2022-09-11T08:06:08.986Z,1.63
2022-09-11T08:08:38.635Z,1.60
2022-09-11T08:11:08.418Z,1.80
2022-09-11T08:13:35.881Z,1.77
2022-09-11T08:16:02.991Z,2.15
2022-09-11T08:18:30.370Z,2.10
2022-09-11T08:21:12.740Z,1.65
2022-09-11T08:23:42.386Z,1.70
2022-09-11T08:26:17.572Z,1.63
2022-09-11T08:28:45.134Z,2.05
2022-09-11T08:31:12.991Z,1.77
2022-09-11T08:33:40.077Z,1.73
2022-09-11T08:36:09.948Z,1.88
2022-09-11T08:38:39.409Z,2.13
2022-09-11T08:41:11.378Z,5.65
2022-09-11T08:43:46.184Z,2.38
2022-09-11T08:46:13.217Z,2.50
2022-09-11T08:48:59.957Z,2.30
2022-09-11T08:51:27.184Z,1.98
2022-09-11T08:53:57.003Z,1.95
2022-09-11T08:56:29.500Z,2.20
2022-09-11T08:59:18.739Z,2.15
2022-09-11T09:02:14.750Z,2.20
2022-09-11T09:05:05.910Z,2.10
2022-09-11T09:07:41.083Z,2.03
2022-09-11T09:10:32.851Z,2.03
2022-09-11T09:13:08.510Z,2.30
2022-09-11T09:15:51.178Z,1.90
2022-09-11T09:18:45.244Z,2.05
2022-09-11T09:21:25.128Z,1.98
2022-09-11T09:23:55.282Z,2.10
2022-09-11T09:26:28.632Z,2.08
2022-09-11T09:29:01.013Z,2.20
2022-09-11T09:31:31.387Z,2.03
2022-09-11T09:34:22.329Z,1.88
2022-09-11T09:37:16.249Z,4.28
2022-09-11T09:39:43.389Z,2.15
2022-09-11T09:42:36.244Z,2.40
2022-09-11T09:45:19.143Z,2.88
2022-09-11T09:47:49.824Z,2.88
2022-09-11T09:50:32.927Z,2.97
2022-09-11T09:53:32.598Z,3.70
2022-09-11T09:56:00.860Z,3.38
2022-09-11T09:58:32.285Z,4.20
2022-09-11T10:00:59.552Z,4.00
2022-09-11T10:03:26.566Z,3.75
2022-09-11T10:06:13.166Z,3.30
2022-09-11T10:08:39.917Z,3.50
2022-09-11T10:11:11.052Z,3.97
2022-09-11T10:13:41.804Z,3.20
2022-09-11T10:16:23.642Z,3.50
2022-09-11T10:18:50.498Z,3.92
2022-09-11T10:21:23.695Z,4.45
2022-09-11T10:24:02.476Z,3.35
2022-09-11T10:26:32.831Z,4.07
2022-09-11T10:29:12.209Z,3.60
2022-09-11T10:31:41.050Z,3.60
2022-09-11T10:34:15.735Z,3.67
2022-09-11T10:37:11.763Z,3.13
2022-09-11T10:39:39.794Z,2.42
2022-09-11T10:42:27.804Z,2.78
2022-09-11T10:45:06.207Z,2.58
2022-09-11T10:47:33.236Z,2.80
2022-09-11T10:50:35.221Z,2.97
2022-09-11T10:53:23.391Z,4.35
2022-09-11T10:55:58.199Z,3.33
2022-09-11T10:58:32.819Z,3.38
2022-09-11T11:00:59.576Z,4.00
2022-09-11T11:03:30.225Z,3.67
2022-09-11T11:06:33.893Z,3.97
2022-09-11T11:09:19.212Z,4.03
2022-09-11T11:12:03.285Z,3.63
2022-09-11T11:14:45.759Z,2.53
2022-09-11T11:17:19.582Z,2.60
2022-09-11T11:19:59.462Z,3.15
2022-09-11T11:22:59.947Z,3.55
2022-09-11T11:25:47.906Z,4.07
2022-09-11T11:28:17.197Z,5.07
2022-09-11T11:31:01.108Z,4.70
2022-09-11T11:36:16.559Z,9.65
2022-09-11T11:42:28.374Z,8.48
2022-09-11T11:45:20.963Z,7.03
2022-09-11T11:47:48.956Z,6.78
2022-09-11T11:50:21.764Z,4.80
2022-09-11T11:52:59.351Z,5.00
2022-09-11T11:55:48.196Z,6.13
2022-09-11T11:58:41.329Z,5.53
2022-09-11T12:01:17.134Z,4.10
2022-09-11T12:04:17.860Z,5.40
2022-09-11T12:06:44.591Z,4.82
2022-09-11T12:09:11.406Z,3.38
2022-09-11T12:11:39.235Z,3.65
2022-09-11T12:14:07.564Z,3.67
2022-09-11T12:16:35.534Z,3.50
2022-09-11T12:19:14.513Z,3.72
2022-09-11T12:22:04.729Z,4.10
2022-09-11T12:24:56.046Z,3.70
2022-09-11T12:27:50.725Z,3.88
2022-09-11T12:30:17.612Z,3.80
2022-09-11T12:33:01.431Z,4.50
2022-09-11T12:35:49.421Z,3.55
2022-09-11T12:38:35.547Z,3.80
2022-09-11T12:41:07.593Z,3.80
2022-09-11T12:43:34.247Z,3.72
2022-09-11T12:46:06.257Z,4.57
2022-09-11T12:48:43.004Z,4.47
2022-09-11T12:51:37.823Z,3.92
2022-09-11T12:54:21.007Z,4.43
2022-09-11T12:56:52.069Z,4.22
2022-09-11T12:59:25.951Z,3.83
2022-09-11T13:01:53.875Z,4.18
2022-09-11T13:04:23.278Z,4.15
2022-09-11T13:06:54.923Z,4.20
2022-09-11T13:09:34.518Z,3.70
2022-09-11T13:12:26.270Z,3.28
2022-09-11T13:14:56.682Z,3.92
2022-09-11T13:17:31.366Z,3.47
2022-09-11T13:20:22.258Z,3.45
2022-09-11T13:22:58.212Z,2.97
2022-09-11T13:25:28.124Z,2.42
2022-09-11T13:27:57.579Z,2.20
2022-09-11T13:30:26.099Z,1.75
2022-09-11T13:33:19.333Z,1.90
2022-09-11T13:35:46.573Z,1.80
2022-09-11T13:38:24.046Z,2.00
2022-09-11T13:41:00.364Z,1.95
2022-09-11T13:43:41.822Z,2.30
2022-09-11T13:46:14.777Z,2.10
2022-09-11T13:48:43.451Z,2.10
2022-09-11T13:51:15.168Z,2.55
2022-09-11T13:53:45.470Z,2.83
2022-09-11T13:56:35.978Z,2.00
2022-09-11T13:59:48.280Z,2.13
2022-09-11T14:02:38.116Z,2.47
2022-09-11T14:05:23.186Z,2.30
2022-09-11T14:08:07.332Z,2.47
2022-09-11T14:10:43.281Z,3.15
2022-09-11T14:13:33.142Z,2.65
2022-09-11T14:16:06.702Z,3.78
2022-09-11T14:21:04.159Z,2.10
2022-09-11T14:23:43.149Z,2.50
2022-09-11T14:26:12.662Z,2.30
2022-09-11T14:28:40.397Z,1.92
2022-09-11T14:31:09.188Z,2.20
2022-09-11T14:33:36.003Z,2.58
2022-09-11T14:36:19.451Z,2.38
2022-09-11T14:38:47.801Z,2.10
2022-09-11T14:41:14.787Z,2.22
2022-09-11T14:43:46.539Z,2.03
2022-09-11T14:46:16.255Z,2.20
2022-09-11T14:48:44.093Z,2.00
2022-09-11T14:51:13.608Z,1.90
2022-09-11T14:53:43.254Z,2.17
2022-09-11T14:56:10.427Z,2.10
2022-09-11T14:58:37.193Z,2.20
2022-09-11T15:01:04.019Z,2.05
2022-09-11T15:03:31.916Z,3.03
2022-09-11T15:06:01.087Z,3.03
2022-09-11T15:08:27.899Z,2.80
2022-09-11T15:10:54.725Z,3.30
2022-09-11T15:13:28.018Z,2.97
2022-09-11T15:15:56.263Z,3.05
2022-09-11T15:18:23.871Z,2.67
2022-09-11T15:20:50.716Z,2.90
2022-09-11T15:23:17.513Z,3.35
2022-09-11T15:25:44.248Z,3.40
2022-09-11T15:28:11.047Z,4.07
2022-09-11T15:30:38.772Z,6.93
2022-09-11T15:33:05.644Z,11.52
2022-09-11T15:35:33.193Z,4.80
2022-09-11T15:38:00.387Z,2.60
2022-09-11T15:40:27.097Z,2.65
2022-09-11T15:42:56.705Z,2.80
2022-09-11T15:45:23.505Z,2.80
2022-09-11T15:47:50.155Z,3.40
2022-09-11T15:50:21.756Z,2.95
2022-09-11T15:52:48.450Z,3.15
2022-09-11T15:55:15.177Z,3.10
2022-09-11T15:57:41.913Z,3.10
2022-09-11T16:00:09.289Z,2.70
2022-09-11T16:02:36.224Z,3.20
2022-09-11T16:05:02.952Z,2.90
2022-09-11T16:07:29.573Z,2.95
2022-09-11T16:09:56.235Z,3.00
2022-09-11T16:12:23.067Z,3.22
2022-09-11T16:14:50.363Z,3.40
2022-09-11T16:17:20.590Z,3.03
2022-09-11T16:19:47.853Z,3.00
2022-09-11T16:22:14.553Z,3.17
2022-09-11T16:24:42.567Z,2.97
2022-09-11T16:27:10.325Z,2.80
2022-09-11T16:30:15.459Z,3.30
2022-09-11T16:32:34.145Z,2.90
2022-09-11T16:35:00.848Z,2.95
2022-09-11T16:37:28.636Z,2.55
2022-09-11T16:39:55.757Z,2.50
2022-09-11T16:42:22.436Z,2.80
2022-09-11T16:44:50.113Z,2.65
2022-09-11T16:47:17.863Z,2.45
2022-09-11T16:50:14.051Z,2.70
2022-09-11T16:52:32.333Z,2.60
2022-09-11T16:54:59.231Z,2.40
2022-09-11T16:57:27.483Z,2.15
2022-09-11T16:59:54.549Z,4.70
2022-09-11T17:02:21.233Z,6.68
2022-09-11T17:04:48.043Z,7.93
2022-09-11T17:07:14.702Z,6.20
2022-09-11T17:09:43.900Z,5.47
2022-09-11T17:12:11.160Z,5.18
2022-09-11T17:14:38.369Z,7.10
2022-09-11T17:17:05.370Z,6.63
2022-09-11T17:19:31.996Z,7.32
2022-09-11T17:22:00.071Z,7.47
2022-09-11T17:24:26.766Z,6.45
2022-09-11T17:26:53.431Z,5.55
2022-09-11T17:29:20.221Z,5.50
2022-09-11T17:31:47.013Z,2.83
2022-09-11T17:34:14.737Z,2.50
2022-09-11T17:36:41.691Z,2.47
2022-09-11T17:39:09.439Z,3.17
2022-09-11T17:41:36.494Z,2.35
2022-09-11T17:44:03.545Z,2.30
2022-09-11T17:46:30.247Z,2.30
2022-09-11T17:48:56.905Z,2.67
2022-09-11T17:51:26.484Z,2.60
2022-09-11T17:53:56.571Z,2.40
2022-09-11T17:56:32.694Z,2.70
2022-09-11T17:59:00.733Z,2.42
2022-09-11T18:01:30.534Z,2.85
2022-09-11T18:03:59.032Z,2.42
2022-09-11T18:06:34.051Z,3.05
2022-09-11T18:09:03.491Z,2.25
2022-09-11T18:11:30.828Z,2.53
2022-09-11T18:14:00.248Z,2.70
2022-09-11T18:16:27.535Z,2.80
2022-09-11T18:18:55.591Z,2.60
2022-09-11T18:21:22.396Z,3.70
2022-09-11T18:23:49.844Z,3.53
2022-09-11T18:26:23.610Z,3.30
2022-09-11T18:28:50.908Z,3.13
2022-09-11T18:31:17.814Z,2.90
2022-09-11T18:33:44.884Z,2.95
2022-09-11T18:36:13.556Z,2.95
2022-09-11T18:38:40.459Z,2.75
2022-09-11T18:41:07.262Z,3.50
2022-09-11T18:43:33.970Z,3.63
2022-09-11T18:46:03.742Z,3.47
2022-09-11T18:48:30.416Z,3.25
2022-09-11T18:50:57.402Z,3.45
2022-09-11T18:53:24.141Z,5.85
2022-09-11T18:56:00.450Z,12.25
2022-09-11T18:58:32.469Z,6.20
2022-09-11T19:01:02.767Z,4.43
2022-09-11T19:03:32.507Z,4.07
2022-09-11T19:06:08.983Z,4.03
2022-09-11T19:08:40.518Z,5.60
2022-09-11T19:11:28.186Z,6.80
2022-09-11T19:14:00.386Z,5.32
2022-09-11T19:16:27.038Z,4.20
2022-09-11T19:18:54.005Z,3.10
2022-09-11T19:21:22.791Z,2.80
2022-09-11T19:23:51.820Z,3.40
2022-09-11T19:26:18.768Z,3.70
2022-09-11T19:28:46.246Z,3.20
2022-09-11T19:31:18.331Z,3.95
2022-09-11T19:33:45.243Z,4.22
2022-09-11T19:36:17.858Z,3.60
2022-09-11T19:38:46.449Z,3.70
2022-09-11T19:41:16.490Z,3.92
2022-09-11T19:43:44.783Z,3.15
2022-09-11T19:46:15.132Z,3.45
2022-09-11T19:48:42.980Z,3.40
2022-09-11T19:51:16.600Z,3.03
2022-09-11T19:56:11.555Z,3.22
2022-09-11T19:58:41.284Z,2.85
2022-09-11T20:01:11.875Z,3.00
2022-09-11T20:03:41.032Z,3.17
2022-09-11T20:06:09.857Z,2.90
2022-09-11T20:08:38.522Z,2.70
2022-09-11T20:11:07.845Z,2.40
2022-09-11T20:13:35.787Z,2.55
2022-09-11T20:16:07.932Z,2.72
2022-09-11T20:18:34.803Z,2.42
2022-09-11T20:21:03.794Z,2.40
2022-09-11T20:23:31.267Z,2.30
2022-09-11T20:26:19.761Z,2.10
2022-09-11T20:28:47.720Z,2.42
2022-09-11T20:31:27.780Z,2.20
2022-09-11T20:33:55.249Z,2.30
2022-09-11T20:36:22.433Z,2.30
2022-09-11T20:38:51.597Z,2.10
2022-09-11T20:41:19.990Z,2.58
2022-09-11T20:43:47.234Z,2.20
2022-09-11T20:46:14.176Z,2.10
2022-09-11T20:48:41.689Z,1.88
2022-09-11T20:51:13.352Z,2.28
2022-09-11T20:53:45.867Z,1.85
2022-09-11T20:56:15.726Z,2.25
2022-09-11T20:58:44.370Z,2.30
2022-09-11T21:01:17.185Z,2.35
2022-09-11T21:03:55.737Z,2.13
2022-09-11T21:06:26.325Z,2.17
2022-09-11T21:08:56.750Z,2.33
2022-09-11T21:11:28.454Z,1.77
2022-09-11T21:13:55.906Z,2.00
2022-09-11T21:16:23.458Z,2.10
2022-09-11T21:18:54.442Z,2.08
2022-09-11T21:21:23.594Z,1.92
2022-09-11T21:24:12.938Z,2.10
2022-09-11T21:26:40.711Z,1.70
2022-09-11T21:29:11.705Z,1.90
2022-09-11T21:31:38.790Z,2.28
2022-09-11T21:34:06.059Z,1.95
2022-09-11T21:36:33.784Z,1.92
2022-09-11T21:39:00.663Z,2.10
2022-09-11T21:41:28.100Z,2.20
2022-09-11T21:43:55.086Z,2.08
2022-09-11T21:46:22.020Z,2.40
2022-09-11T21:48:52.957Z,2.33
2022-09-11T21:51:22.123Z,2.10
2022-09-11T21:53:55.163Z,2.42
2022-09-11T21:56:29.598Z,2.20
2022-09-11T21:58:57.429Z,1.98
2022-09-11T22:01:25.595Z,2.00
2022-09-11T22:03:53.192Z,1.90
2022-09-11T22:06:21.745Z,1.90
2022-09-11T22:08:48.890Z,1.83
2022-09-11T22:11:16.814Z,1.90
2022-09-11T22:13:44.509Z,1.80
2022-09-11T22:16:13.767Z,1.63
2022-09-11T22:18:41.810Z,1.58
2022-09-11T22:21:10.424Z,1.50
2022-09-11T22:23:37.164Z,1.40
2022-09-11T22:26:07.661Z,1.52
2022-09-11T22:28:35.413Z,1.50
2022-09-11T22:31:07.881Z,1.58
2022-09-11T22:33:37.556Z,1.70
2022-09-11T22:36:15.784Z,1.60
2022-09-11T22:38:43.090Z,1.67
2022-09-11T22:41:10.231Z,1.38
2022-09-11T22:43:36.964Z,1.40
2022-09-11T22:46:04.588Z,1.40
2022-09-11T22:48:31.850Z,1.63
2022-09-11T22:50:59.490Z,1.55
2022-09-11T22:53:27.489Z,1.60
2022-09-11T22:55:55.166Z,1.70
2022-09-11T22:58:23.786Z,1.52
2022-09-11T23:00:53.736Z,1.77
2022-09-11T23:03:20.808Z,1.77
2022-09-11T23:06:06.638Z,1.80
2022-09-11T23:08:39.143Z,1.63
2022-09-11T23:11:06.129Z,1.88
2022-09-11T23:13:33.972Z,1.88
2022-09-11T23:16:01.002Z,1.50
2022-09-11T23:18:28.063Z,1.80
2022-09-11T23:20:58.653Z,1.70
2022-09-11T23:23:25.952Z,1.40
2022-09-11T23:25:52.625Z,1.63
2022-09-11T23:28:19.406Z,1.50
2022-09-11T23:30:46.036Z,1.52
2022-09-11T23:33:12.861Z,1.67
2022-09-11T23:35:40.769Z,1.80
2022-09-11T23:38:10.576Z,1.58
2022-09-11T23:40:37.247Z,1.80
2022-09-11T23:43:03.856Z,1.52
2022-09-11T23:45:30.603Z,1.75
2022-09-11T23:47:57.303Z,1.73
2022-09-11T23:50:23.952Z,1.85
2022-09-11T23:52:50.699Z,1.80
2022-09-11T23:55:19.120Z,1.67
2022-09-11T23:57:47.927Z,2.17
